createdAt,value
2019-01-10T00:00:58.295Z,102237.58
2019-01-10T00:01:58.726Z,102237.58
2019-01-10T00:02:59.278Z,102237.72
2019-01-10T00:04:00.005Z,102237.83
2019-01-10T00:05:00.284Z,102238.06
2019-01-10T00:05:59.920Z,102238.56
2019-01-10T00:07:02.903Z,102238.13
2019-01-10T00:08:02.362Z,102238.30
2019-01-10T00:09:02.860Z,102238.80
2019-01-10T00:10:03.095Z,102238.88
2019-01-10T00:11:03.879Z,102239.14
2019-01-10T00:12:04.653Z,102240.14
2019-01-10T00:13:05.458Z,102240.55
2019-01-10T00:14:05.951Z,102241.05
2019-01-10T00:15:06.385Z,102241.55
2019-01-10T00:16:06.803Z,102242.48
2019-01-10T00:17:07.343Z,102242.81
2019-01-10T00:18:08.047Z,102243.47
2019-01-10T00:18:18.005Z,102250.36
2019-01-10T00:19:18.768Z,102250.27
2019-01-10T00:20:19.310Z,102250.53
2019-01-10T00:21:19.907Z,102250.70
2019-01-10T00:22:20.390Z,102251.03
2019-01-10T00:23:20.880Z,102251.36
2019-01-10T00:24:21.295Z,102251.70
2019-01-10T00:25:21.921Z,102252.20
2019-01-10T00:26:22.520Z,102252.70
2019-01-10T00:27:23.263Z,102253.60
2019-01-10T00:28:24.207Z,102254.51
2019-01-10T00:29:24.643Z,102254.91
2019-01-10T00:30:25.239Z,102255.75
2019-01-10T00:31:25.956Z,102256.35
2019-01-10T00:32:26.514Z,102258.02
2019-01-10T00:33:27.070Z,102259.02
2019-01-10T00:34:27.293Z,102260.26
2019-01-10T00:35:27.828Z,102261.33
2019-01-10T00:36:28.412Z,102262.41
2019-01-10T00:37:28.944Z,102263.26
2019-01-10T00:38:29.572Z,102264.56
2019-01-10T00:39:30.125Z,102265.66
2019-01-10T00:40:30.892Z,102267.16
2019-01-10T00:41:31.666Z,102268.41
2019-01-10T00:42:32.207Z,102269.15
2019-01-10T00:43:32.969Z,102270.13
2019-01-10T00:44:33.531Z,102271.14
2019-01-10T00:45:34.216Z,102272.70
2019-01-10T00:46:34.852Z,102273.52
2019-01-10T00:47:35.413Z,102274.36
2019-01-10T00:48:36.134Z,102275.60
2019-01-10T00:49:36.650Z,102277.04
2019-01-10T00:50:37.410Z,102278.54
2019-01-10T00:51:37.941Z,102279.28
2019-01-10T00:52:38.720Z,102280.19
2019-01-10T00:53:39.289Z,102280.86
2019-01-10T00:54:39.879Z,102281.67
2019-01-10T00:55:40.535Z,102282.34
2019-01-10T00:56:41.197Z,102283.33
2019-01-10T00:57:41.870Z,102283.83
2019-01-10T00:58:42.395Z,102284.31
2019-01-10T00:59:42.876Z,102284.98
2019-01-10T01:00:43.458Z,102285.73
2019-01-10T01:00:53.418Z,102295.72
2019-01-10T01:01:54.891Z,102295.89
2019-01-10T01:02:55.796Z,102295.72
2019-01-10T01:03:56.378Z,102295.72
2019-01-10T01:04:57.048Z,102295.56
2019-01-10T01:05:57.772Z,102295.95
2019-01-10T01:06:58.332Z,102295.72
2019-01-10T01:07:58.433Z,102296.23
2019-01-10T01:08:59.045Z,102296.47
2019-01-10T01:09:59.612Z,102296.80
2019-01-10T01:11:00.273Z,102296.80
2019-01-10T01:12:00.781Z,102297.30
2019-01-10T01:13:01.335Z,102298.06
2019-01-10T01:14:01.811Z,102298.13
2019-01-10T01:15:02.473Z,102298.97
2019-01-10T01:16:02.971Z,102299.73
2019-01-10T01:17:03.585Z,102300.23
2019-01-10T01:18:03.995Z,102300.64
2019-01-10T01:19:04.465Z,102301.07
2019-01-10T01:20:04.875Z,102301.64
2019-01-10T01:21:05.451Z,102301.74
2019-01-10T01:22:05.997Z,102301.81
2019-01-10T01:23:07.069Z,102302.48
2019-01-10T01:24:06.443Z,102302.72
2019-01-10T01:25:08.004Z,102303.12
2019-01-10T01:26:08.761Z,102303.56
2019-01-10T01:27:09.379Z,102304.89
2019-01-10T01:28:09.948Z,102305.30
2019-01-10T01:29:10.568Z,102305.53
2019-01-10T01:30:11.142Z,102306.03
2019-01-10T01:31:11.984Z,102306.63
2019-01-10T01:32:12.787Z,102306.97
2019-01-10T01:33:13.355Z,102307.39
2019-01-10T01:34:14.427Z,102307.80
2019-01-10T01:35:14.333Z,102308.73
2019-01-10T01:36:16.032Z,102309.13
2019-01-10T01:37:16.579Z,102310.12
2019-01-10T01:38:17.006Z,102311.13
2019-01-10T01:39:17.617Z,102311.54
2019-01-10T01:40:18.286Z,102312.45
2019-01-10T01:41:19.056Z,102313.61
2019-01-10T01:42:19.730Z,102314.61
2019-01-10T01:43:20.198Z,102315.38
2019-01-10T01:44:20.967Z,102316.62
2019-01-10T01:45:21.580Z,102317.48
2019-01-10T01:46:22.343Z,102319.08
2019-01-10T01:46:31.309Z,102335.16
2019-01-10T01:47:31.892Z,102334.90
2019-01-10T01:48:32.401Z,102335.39
2019-01-10T01:49:32.476Z,102335.48
2019-01-10T01:50:32.963Z,102336.34
2019-01-10T01:51:33.482Z,102337.08
2019-01-10T01:52:33.541Z,102337.52
2019-01-10T01:53:34.043Z,102337.58
2019-01-10T01:54:34.774Z,102337.23
2019-01-10T01:55:34.918Z,102337.56
2019-01-10T01:56:34.543Z,102337.31
2019-01-10T01:57:36.129Z,102337.30
2019-01-10T01:58:36.420Z,102337.55
2019-01-10T01:59:36.860Z,102337.37
2019-01-10T02:00:37.466Z,102337.75
2019-01-10T02:01:38.412Z,102337.77
2019-01-10T02:02:39.156Z,102337.92
2019-01-10T02:03:39.694Z,102337.80
2019-01-10T02:04:40.557Z,102338.13
2019-01-10T02:05:41.099Z,102338.28
2019-01-10T02:06:41.680Z,102338.19
2019-01-10T02:07:42.255Z,102338.61
2019-01-10T02:08:42.917Z,102338.25
2019-01-10T02:09:42.304Z,102337.98
2019-01-10T02:10:43.979Z,102338.25
2019-01-10T02:11:44.528Z,102338.84
2019-01-10T02:12:45.145Z,102339.27
2019-01-10T02:13:46.088Z,102340.17
2019-01-10T02:14:46.669Z,102341.09
2019-01-10T02:15:47.498Z,102341.17
2019-01-10T02:16:48.264Z,102341.27
2019-01-10T02:17:49.538Z,102341.43
2019-01-10T02:18:48.685Z,102342.45
2019-01-10T02:19:50.181Z,102343.29
2019-01-10T02:20:50.724Z,102343.86
2019-01-10T02:21:51.170Z,102344.27
2019-01-10T02:22:50.667Z,102345.27
2019-01-10T02:23:52.363Z,102346.27
2019-01-10T02:24:52.864Z,102347.34
2019-01-10T02:25:53.536Z,102348.42
2019-01-10T02:26:54.277Z,102349.32
2019-01-10T02:27:53.834Z,102350.82
2019-01-10T02:28:54.981Z,102351.83
2019-01-10T02:29:55.494Z,102353.09
2019-01-10T02:30:56.123Z,102353.83
2019-01-10T02:31:56.616Z,102354.66
2019-01-10T02:32:56.827Z,102356.16
2019-01-10T02:33:05.135Z,102371.27
2019-01-10T02:34:06.614Z,102371.05
2019-01-10T02:35:07.176Z,102370.95
2019-01-10T02:36:07.712Z,102371.11
2019-01-10T02:37:08.270Z,102371.61
2019-01-10T02:38:08.909Z,102372.37
2019-01-10T02:39:09.422Z,102372.87
2019-01-10T02:40:09.903Z,102373.71
2019-01-10T02:41:09.362Z,102375.03
2019-01-10T02:42:11.187Z,102376.03
2019-01-10T02:43:10.608Z,102376.88
2019-01-10T02:44:12.088Z,102377.70
2019-01-10T02:45:12.528Z,102379.03
2019-01-10T02:46:13.093Z,102380.11
2019-01-10T02:47:13.637Z,102381.61
2019-01-10T02:48:14.157Z,102383.11
2019-01-10T02:49:14.969Z,102384.11
2019-01-10T02:50:15.822Z,102385.11
2019-01-10T02:51:16.457Z,102386.54
2019-01-10T02:52:17.105Z,102387.05
2019-01-10T02:53:17.659Z,102388.05
2019-01-10T02:54:18.149Z,102388.52
2019-01-10T02:55:18.706Z,102389.92
2019-01-10T02:56:19.218Z,102391.26
2019-01-10T02:57:20.092Z,102392.19
2019-01-10T02:58:20.783Z,102392.87
2019-01-10T02:59:21.423Z,102393.70
2019-01-10T03:00:21.873Z,102394.89
2019-01-10T03:01:22.466Z,102396.13
2019-01-10T03:02:23.135Z,102396.39
2019-01-10T03:03:23.774Z,102397.30
2019-01-10T03:04:24.412Z,102398.23
2019-01-10T03:05:25.350Z,102398.64
2019-01-10T03:06:26.146Z,102399.37
2019-01-10T03:07:26.757Z,102400.11
2019-01-10T03:08:27.275Z,102400.78
2019-01-10T03:09:27.819Z,102402.09
2019-01-10T03:10:28.401Z,102403.27
2019-01-10T03:11:29.155Z,102404.69
2019-01-10T03:12:29.623Z,102405.33
2019-01-10T03:13:36.412Z,102406.24
2019-01-10T03:14:29.960Z,102406.95
2019-01-10T03:15:31.433Z,102407.70
2019-01-10T03:16:31.898Z,102407.88
2019-01-10T03:17:32.438Z,102408.05
2019-01-10T03:18:32.950Z,102408.38
2019-01-10T03:18:41.305Z,102406.67
2019-01-10T03:19:42.622Z,102406.94
2019-01-10T03:20:43.294Z,102407.44
2019-01-10T03:21:43.706Z,102407.84
2019-01-10T03:22:44.068Z,102407.82
2019-01-10T03:23:44.748Z,102408.16
2019-01-10T03:24:45.273Z,102408.56
2019-01-10T03:25:45.599Z,102408.98
2019-01-10T03:26:46.252Z,102409.39
2019-01-10T03:27:46.663Z,102409.45
2019-01-10T03:28:47.245Z,102409.66
2019-01-10T03:29:47.803Z,102410.19
2019-01-10T03:30:48.746Z,102410.83
2019-01-10T03:31:49.358Z,102411.38
2019-01-10T03:32:49.906Z,102411.79
2019-01-10T03:33:50.501Z,102411.87
2019-01-10T03:34:51.428Z,102412.45
2019-01-10T03:35:52.099Z,102412.92
2019-01-10T03:36:52.940Z,102413.09
2019-01-10T03:37:53.090Z,102413.34
2019-01-10T03:38:53.572Z,102413.51
2019-01-10T03:39:54.335Z,102413.98
2019-01-10T03:40:54.821Z,102414.49
2019-01-10T03:41:55.457Z,102414.30
2019-01-10T03:42:55.143Z,102414.73
2019-01-10T03:43:56.908Z,102414.80
2019-01-10T03:44:57.428Z,102414.89
2019-01-10T03:45:57.989Z,102415.20
2019-01-10T03:46:58.641Z,102415.25
2019-01-10T03:47:58.051Z,102414.75
2019-01-10T03:48:59.284Z,102414.38
2019-01-10T03:49:59.820Z,102413.95
2019-01-10T03:51:00.490Z,102413.41
2019-01-10T03:51:59.763Z,102412.73
2019-01-10T03:53:02.325Z,102412.55
2019-01-10T03:54:01.880Z,102412.47
2019-01-10T03:55:02.401Z,102412.38
2019-01-10T03:56:02.480Z,102412.09
2019-01-10T03:57:03.065Z,102411.33
2019-01-10T03:58:03.769Z,102410.74
2019-01-10T03:59:04.476Z,102410.05
2019-01-10T04:00:04.873Z,102410.16
2019-01-10T04:01:05.413Z,102409.73
2019-01-10T04:02:05.958Z,102409.13
2019-01-10T04:03:06.500Z,102408.47
2019-01-10T04:04:07.164Z,102408.38
2019-01-10T04:05:06.620Z,102407.78
2019-01-10T04:05:14.915Z,102407.16
2019-01-10T04:06:16.555Z,102406.76
2019-01-10T04:07:16.049Z,102407.26
2019-01-10T04:08:17.564Z,102406.73
2019-01-10T04:09:18.077Z,102406.58
2019-01-10T04:10:19.026Z,102406.55
2019-01-10T04:11:19.597Z,102406.45
2019-01-10T04:12:20.150Z,102406.13
2019-01-10T04:13:20.607Z,102406.20
2019-01-10T04:14:21.216Z,102406.53
2019-01-10T04:15:21.772Z,102406.36
2019-01-10T04:16:22.501Z,102406.03
2019-01-10T04:17:23.016Z,102405.86
2019-01-10T04:18:23.501Z,102405.80
2019-01-10T04:19:23.996Z,102405.39
2019-01-10T04:20:24.513Z,102404.89
2019-01-10T04:21:24.942Z,102404.72
2019-01-10T04:22:25.502Z,102404.72
2019-01-10T04:23:26.164Z,102405.12
2019-01-10T04:24:26.713Z,102405.22
2019-01-10T04:25:27.382Z,102404.72
2019-01-10T04:26:26.769Z,102405.15
2019-01-10T04:27:28.345Z,102405.31
2019-01-10T04:28:29.943Z,102405.64
2019-01-10T04:29:29.480Z,102405.83
2019-01-10T04:30:29.940Z,102405.93
2019-01-10T04:31:30.620Z,102406.42
2019-01-10T04:32:31.184Z,102406.91
2019-01-10T04:33:31.684Z,102407.44
2019-01-10T04:34:32.296Z,102408.69
2019-01-10T04:35:33.020Z,102408.69
2019-01-10T04:36:33.796Z,102409.63
2019-01-10T04:37:34.572Z,102410.02
2019-01-10T04:38:35.193Z,102410.28
2019-01-10T04:39:35.203Z,102411.22
2019-01-10T04:40:35.745Z,102411.88
2019-01-10T04:41:36.460Z,102412.56
2019-01-10T04:42:36.958Z,102413.06
2019-01-10T04:43:37.497Z,102413.55
2019-01-10T04:44:38.012Z,102414.24
2019-01-10T04:45:38.541Z,102415.23
2019-01-10T04:46:39.324Z,102415.66
2019-01-10T04:47:40.285Z,102416.09
2019-01-10T04:48:40.828Z,102416.76
2019-01-10T04:49:41.220Z,102417.76
2019-01-10T04:50:41.627Z,102418.42
2019-01-10T04:50:50.059Z,102429.77
2019-01-10T04:51:51.395Z,102429.34
2019-01-10T04:52:51.925Z,102429.44
2019-01-10T04:53:52.448Z,102429.34
2019-01-10T04:54:55.982Z,102429.75
2019-01-10T04:55:52.551Z,102429.56
2019-01-10T04:56:53.897Z,102429.47
2019-01-10T04:57:54.334Z,102429.48
2019-01-10T04:58:54.860Z,102429.55
2019-01-10T04:59:55.521Z,102429.63
2019-01-10T05:00:55.966Z,102429.89
2019-01-10T05:01:56.760Z,102429.53
2019-01-10T05:02:57.225Z,102430.27
2019-01-10T05:03:56.804Z,102430.77
2019-01-10T05:04:58.361Z,102431.20
2019-01-10T05:05:58.927Z,102431.45
2019-01-10T05:06:59.463Z,102431.26
2019-01-10T05:07:59.962Z,102432.08
2019-01-10T05:09:00.543Z,102432.06
2019-01-10T05:10:01.177Z,102432.09
2019-01-10T05:11:00.729Z,102431.91
2019-01-10T05:12:02.293Z,102431.70
2019-01-10T05:13:02.765Z,102432.11
2019-01-10T05:14:03.421Z,102431.80
2019-01-10T05:15:03.945Z,102431.77
2019-01-10T05:16:04.443Z,102431.33
2019-01-10T05:17:04.984Z,102431.14
2019-01-10T05:18:08.024Z,102431.20
2019-01-10T05:19:05.028Z,102431.25
2019-01-10T05:20:06.623Z,102430.84
2019-01-10T05:21:07.203Z,102430.48
2019-01-10T05:22:07.786Z,102430.23
2019-01-10T05:23:08.556Z,102430.37
2019-01-10T05:24:09.027Z,102430.77
2019-01-10T05:25:09.514Z,102431.20
2019-01-10T05:26:10.189Z,102431.37
2019-01-10T05:27:10.730Z,102432.03
2019-01-10T05:28:11.187Z,102432.36
2019-01-10T05:29:11.715Z,102432.77
2019-01-10T05:30:12.420Z,102433.10
2019-01-10T05:31:13.112Z,102433.03
2019-01-10T05:32:13.705Z,102433.70
2019-01-10T05:33:14.525Z,102434.38
2019-01-10T05:34:15.216Z,102435.03
2019-01-10T05:35:15.644Z,102435.60
2019-01-10T05:35:23.683Z,102450.66
2019-01-10T05:36:25.205Z,102450.40
2019-01-10T05:37:25.870Z,102449.97
2019-01-10T05:38:26.815Z,102449.74
2019-01-10T05:39:27.301Z,102449.91
2019-01-10T05:40:27.792Z,102449.81
2019-01-10T05:41:28.427Z,102449.98
2019-01-10T05:42:29.010Z,102449.38
2019-01-10T05:43:29.505Z,102449.22
2019-01-10T05:44:29.978Z,102449.48
2019-01-10T05:45:30.570Z,102449.38
2019-01-10T05:46:31.061Z,102450.14
2019-01-10T05:47:31.516Z,102450.31
2019-01-10T05:48:31.936Z,102450.64
2019-01-10T05:49:32.715Z,102451.08
2019-01-10T05:50:33.294Z,102451.73
2019-01-10T05:51:33.756Z,102451.82
2019-01-10T05:52:34.306Z,102452.32
2019-01-10T05:53:34.773Z,102452.59
2019-01-10T05:54:35.509Z,102453.09
2019-01-10T05:55:36.103Z,102453.66
2019-01-10T05:56:36.640Z,102453.82
2019-01-10T05:57:37.006Z,102454.32
2019-01-10T05:58:37.481Z,102454.98
2019-01-10T05:59:38.128Z,102455.42
2019-01-10T06:00:38.707Z,102456.33
2019-01-10T06:01:39.190Z,102456.73
2019-01-10T06:02:39.667Z,102457.47
2019-01-10T06:03:40.171Z,102458.97
2019-01-10T06:04:40.793Z,102459.73
2019-01-10T06:05:41.140Z,102460.64
2019-01-10T06:06:41.543Z,102460.70
2019-01-10T06:07:42.023Z,102462.20
2019-01-10T06:08:42.523Z,102463.04
2019-01-10T06:09:43.103Z,102463.55
2019-01-10T06:10:45.647Z,102464.78
2019-01-10T06:11:42.899Z,102466.11
2019-01-10T06:12:44.303Z,102466.92
2019-01-10T06:13:44.655Z,102468.10
2019-01-10T06:14:45.179Z,102468.73
2019-01-10T06:15:45.580Z,102469.58
2019-01-10T06:16:46.314Z,102469.48
2019-01-10T06:17:46.868Z,102470.66
2019-01-10T06:18:47.476Z,102471.03
2019-01-10T06:19:48.052Z,102471.18
2019-01-10T06:20:48.621Z,102471.27
2019-01-10T06:20:56.961Z,102473.00
2019-01-10T06:21:58.329Z,102472.73
2019-01-10T06:22:58.734Z,102473.06
2019-01-10T06:23:59.075Z,102473.41
2019-01-10T06:24:59.498Z,102473.24
2019-01-10T06:26:00.020Z,102473.31
2019-01-10T06:27:00.387Z,102472.95
2019-01-10T06:27:59.718Z,102472.89
2019-01-10T06:29:01.148Z,102473.05
2019-01-10T06:30:01.288Z,102472.79
2019-01-10T06:31:01.880Z,102472.89
2019-01-10T06:32:02.339Z,102473.12
2019-01-10T06:33:02.939Z,102473.38
2019-01-10T06:34:03.357Z,102474.41
2019-01-10T06:35:03.998Z,102474.97
2019-01-10T06:36:04.740Z,102475.83
2019-01-10T06:37:05.206Z,102476.33
2019-01-10T06:38:05.715Z,102476.56
2019-01-10T06:39:06.178Z,102477.23
2019-01-10T06:40:06.597Z,102478.07
2019-01-10T06:41:08.339Z,102479.28
2019-01-10T06:42:07.381Z,102479.33
2019-01-10T06:43:07.808Z,102481.05
2019-01-10T06:44:08.264Z,102481.61
2019-01-10T06:45:08.804Z,102482.26
2019-01-10T06:46:09.262Z,102482.64
2019-01-10T06:47:09.673Z,102483.02
2019-01-10T06:48:10.168Z,102483.50
2019-01-10T06:49:10.606Z,102483.65
2019-01-10T06:50:11.023Z,102484.22
2019-01-10T06:51:11.467Z,102484.30
2019-01-10T06:52:11.987Z,102484.77
2019-01-10T06:53:12.469Z,102484.95
2019-01-10T06:54:13.155Z,102485.12
2019-01-10T06:55:13.658Z,102485.85
2019-01-10T06:56:14.106Z,102486.16
2019-01-10T06:57:14.574Z,102486.92
2019-01-10T06:58:15.048Z,102487.50
2019-01-10T06:59:14.406Z,102487.41
2019-01-10T07:00:15.875Z,102488.05
2019-01-10T07:01:16.539Z,102488.72
2019-01-10T07:02:17.027Z,102489.29
2019-01-10T07:03:17.567Z,102489.93
2019-01-10T07:03:26.483Z,102511.42
2019-01-10T07:04:27.814Z,102510.99
2019-01-10T07:05:28.333Z,102511.02
2019-01-10T07:06:29.081Z,102510.45
2019-01-10T07:07:29.571Z,102510.35
2019-01-10T07:08:29.975Z,102510.05
2019-01-10T07:09:30.379Z,102510.38
2019-01-10T07:10:31.093Z,102510.80
2019-01-10T07:11:31.684Z,102510.92
2019-01-10T07:12:32.272Z,102511.17
2019-01-10T07:13:32.730Z,102511.70
2019-01-10T07:14:33.274Z,102511.95
2019-01-10T07:15:33.683Z,102512.12
2019-01-10T07:16:33.281Z,102512.21
2019-01-10T07:17:34.883Z,102512.64
2019-01-10T07:18:35.454Z,102512.99
2019-01-10T07:19:35.881Z,102513.34
2019-01-10T07:20:36.846Z,102513.80
2019-01-10T07:21:37.285Z,102514.05
2019-01-10T07:22:37.895Z,102514.15
2019-01-10T07:23:38.400Z,102514.57
2019-01-10T07:24:38.791Z,102514.59
2019-01-10T07:25:39.417Z,102514.76
2019-01-10T07:26:39.857Z,102515.12
2019-01-10T07:27:40.281Z,102515.61
2019-01-10T07:28:41.171Z,102516.56
2019-01-10T07:29:41.779Z,102516.90
2019-01-10T07:30:42.197Z,102517.72
2019-01-10T07:31:42.579Z,102518.02
2019-01-10T07:32:43.035Z,102518.50
2019-01-10T07:33:43.398Z,102519.27
2019-01-10T07:34:44.102Z,102520.09
2019-01-10T07:35:44.749Z,102521.53
2019-01-10T07:36:45.222Z,102522.77
2019-01-10T07:37:45.823Z,102524.77
2019-01-10T07:38:45.083Z,102525.66
2019-01-10T07:39:46.479Z,102526.83
2019-01-10T07:40:46.992Z,102528.50
2019-01-10T07:41:47.397Z,102529.83
2019-01-10T07:42:47.880Z,102531.26
2019-01-10T07:43:48.439Z,102532.35
2019-01-10T07:44:48.928Z,102533.75
2019-01-10T07:45:49.330Z,102534.67
2019-01-10T07:46:49.745Z,102536.03
2019-01-10T07:47:50.116Z,102537.52
2019-01-10T07:47:58.409Z,102565.46
2019-01-10T07:48:59.885Z,102564.90
2019-01-10T07:50:00.344Z,102565.13
2019-01-10T07:50:59.738Z,102565.06
2019-01-10T07:52:01.273Z,102564.56
2019-01-10T07:53:01.643Z,102564.32
2019-01-10T07:54:02.047Z,102564.48
2019-01-10T07:55:02.375Z,102564.08
2019-01-10T07:56:02.775Z,102564.00
2019-01-10T07:57:03.247Z,102563.77
2019-01-10T07:58:03.693Z,102563.95
2019-01-10T07:59:04.222Z,102564.14
2019-01-10T08:00:04.770Z,102564.33
2019-01-10T08:01:05.187Z,102563.84
2019-01-10T08:02:05.664Z,102564.13
2019-01-10T08:03:08.551Z,102564.55
2019-01-10T08:04:05.734Z,102564.83
2019-01-10T08:05:07.069Z,102565.12
2019-01-10T08:06:07.583Z,102565.37
2019-01-10T08:07:08.242Z,102565.23
2019-01-10T08:08:08.698Z,102565.75
2019-01-10T08:09:09.180Z,102566.00
2019-01-10T08:10:09.759Z,102565.83
2019-01-10T08:11:10.197Z,102566.29
2019-01-10T08:12:10.851Z,102566.28
2019-01-10T08:13:11.213Z,102566.64
2019-01-10T08:14:11.579Z,102567.04
2019-01-10T08:15:12.184Z,102567.90
2019-01-10T08:16:11.282Z,102567.90
2019-01-10T08:17:16.194Z,102568.50
2019-01-10T08:18:12.250Z,102568.89
2019-01-10T08:19:13.563Z,102569.48
2019-01-10T08:20:13.972Z,102570.59
2019-01-10T08:21:13.341Z,102570.75
2019-01-10T08:22:14.722Z,102571.48
2019-01-10T08:23:15.096Z,102572.31
2019-01-10T08:24:15.420Z,102572.81
2019-01-10T08:25:15.895Z,102573.25
2019-01-10T08:26:16.427Z,102574.25
2019-01-10T08:27:17.010Z,102575.25
2019-01-10T08:28:17.378Z,102575.75
2019-01-10T08:29:17.832Z,102576.32
2019-01-10T08:30:18.276Z,102577.16
2019-01-10T08:31:18.604Z,102577.89
2019-01-10T08:32:18.972Z,102579.23
2019-01-10T08:33:19.655Z,102580.80
2019-01-10T08:33:27.922Z,102604.98
2019-01-10T08:34:29.361Z,102604.55
2019-01-10T08:35:30.249Z,102604.38
2019-01-10T08:36:32.669Z,102604.28
2019-01-10T08:37:29.970Z,102604.13
2019-01-10T08:38:31.318Z,102603.86
2019-01-10T08:39:31.728Z,102604.30
2019-01-10T08:40:32.437Z,102604.45
2019-01-10T08:41:32.838Z,102605.30
2019-01-10T08:42:33.221Z,102605.20
2019-01-10T08:43:33.555Z,102605.50
2019-01-10T08:44:33.958Z,102605.98
2019-01-10T08:45:34.705Z,102606.98
2019-01-10T08:46:35.092Z,102606.99
2019-01-10T08:47:35.469Z,102607.23
2019-01-10T08:48:36.031Z,102607.39
2019-01-10T08:49:36.414Z,102607.23
2019-01-10T08:50:37.231Z,102607.48
2019-01-10T08:51:38.168Z,102607.16
2019-01-10T08:52:37.264Z,102606.89
2019-01-10T08:53:38.726Z,102606.89
2019-01-10T08:54:39.111Z,102606.82
2019-01-10T08:55:39.457Z,102606.66
2019-01-10T08:56:39.985Z,102606.42
2019-01-10T08:57:40.411Z,102605.98
2019-01-10T08:58:40.873Z,102606.51
2019-01-10T08:59:41.243Z,102606.50
2019-01-10T09:00:41.674Z,102606.13
2019-01-10T09:01:40.732Z,102606.05
2019-01-10T09:02:41.797Z,102605.64
2019-01-10T09:03:42.183Z,102605.56
2019-01-10T09:04:42.748Z,102605.99
2019-01-10T09:05:43.243Z,102606.28
2019-01-10T09:06:43.919Z,102607.04
2019-01-10T09:07:44.350Z,102607.36
2019-01-10T09:08:44.787Z,102608.22
2019-01-10T09:09:45.209Z,102608.14
2019-01-10T09:10:45.643Z,102608.34
2019-01-10T09:11:46.158Z,102608.00
2019-01-10T09:12:46.665Z,102607.66
2019-01-10T09:13:46.994Z,102607.69
2019-01-10T09:14:47.356Z,102607.34
2019-01-10T09:15:48.850Z,102607.28
2019-01-10T09:16:48.425Z,102607.23
2019-01-10T09:17:48.854Z,102607.75
2019-01-10T09:18:49.331Z,102607.17
2019-01-10T09:18:57.636Z,102616.97
2019-01-10T09:19:58.962Z,102616.53
2019-01-10T09:21:04.207Z,102616.47
2019-01-10T09:21:59.105Z,102616.80
2019-01-10T09:23:00.984Z,102616.80
2019-01-10T09:24:01.392Z,102616.87
2019-01-10T09:25:02.050Z,102617.23
2019-01-10T09:26:02.378Z,102617.66
2019-01-10T09:27:02.752Z,102617.56
2019-01-10T09:28:03.291Z,102617.06
2019-01-10T09:29:03.768Z,102617.66
2019-01-10T09:30:04.310Z,102617.89
2019-01-10T09:31:04.956Z,102618.05
2019-01-10T09:32:05.561Z,102618.73
2019-01-10T09:33:06.129Z,102619.13
2019-01-10T09:34:06.459Z,102619.20
2019-01-10T09:35:06.903Z,102619.30
2019-01-10T09:36:07.405Z,102619.28
2019-01-10T09:37:07.788Z,102619.87
2019-01-10T09:38:08.250Z,102620.14
2019-01-10T09:39:09.220Z,102620.03
2019-01-10T09:40:09.759Z,102620.30
2019-01-10T09:41:10.563Z,102620.13
2019-01-10T09:42:11.000Z,102620.64
2019-01-10T09:43:11.340Z,102620.70
2019-01-10T09:44:11.881Z,102621.11
2019-01-10T09:45:12.302Z,102621.11
2019-01-10T09:46:12.695Z,102621.34
2019-01-10T09:47:13.187Z,102621.52
2019-01-10T09:48:13.595Z,102621.94
2019-01-10T09:49:15.005Z,102622.28
2019-01-10T09:50:13.689Z,102622.52
2019-01-10T09:51:15.148Z,102622.84
2019-01-10T09:52:15.706Z,102623.28
2019-01-10T09:53:16.264Z,102623.70
2019-01-10T09:54:16.988Z,102624.14
2019-01-10T09:55:17.377Z,102624.30
2019-01-10T09:56:17.739Z,102624.64
2019-01-10T09:57:18.392Z,102624.80
2019-01-10T09:58:18.991Z,102625.70
2019-01-10T09:59:19.388Z,102626.20
2019-01-10T10:00:19.758Z,102627.03
2019-01-10T10:01:20.404Z,102627.80
2019-01-10T10:02:20.876Z,102628.47
2019-01-10T10:03:21.388Z,102629.14
2019-01-10T10:03:29.701Z,102642.17
2019-01-10T10:04:30.093Z,102641.74
2019-01-10T10:05:31.559Z,102642.58
2019-01-10T10:06:32.070Z,102642.81
2019-01-10T10:07:32.712Z,102643.14
2019-01-10T10:08:33.279Z,102643.84
2019-01-10T10:09:33.891Z,102644.33
2019-01-10T10:10:34.327Z,102644.93
2019-01-10T10:11:34.975Z,102645.53
2019-01-10T10:12:35.454Z,102646.35
2019-01-10T10:13:36.055Z,102646.78
2019-01-10T10:14:36.370Z,102647.12
2019-01-10T10:15:36.865Z,102647.55
2019-01-10T10:16:37.242Z,102648.55
2019-01-10T10:17:37.820Z,102648.98
2019-01-10T10:18:38.799Z,102649.70
2019-01-10T10:19:39.754Z,102650.23
2019-01-10T10:20:40.237Z,102650.75
2019-01-10T10:21:39.641Z,102651.84
2019-01-10T10:22:41.092Z,102652.18
2019-01-10T10:23:41.498Z,102652.84
2019-01-10T10:24:41.978Z,102653.34
2019-01-10T10:25:42.407Z,102654.13
2019-01-10T10:26:42.923Z,102654.95
2019-01-10T10:27:43.426Z,102655.39
2019-01-10T10:28:44.315Z,102656.12
2019-01-10T10:29:44.964Z,102656.55
2019-01-10T10:30:44.541Z,102656.98
2019-01-10T10:31:45.067Z,102657.64
2019-01-10T10:32:45.630Z,102657.58
2019-01-10T10:33:47.377Z,102658.05
2019-01-10T10:34:46.780Z,102658.38
2019-01-10T10:35:47.526Z,102658.88
2019-01-10T10:36:47.948Z,102659.72
2019-01-10T10:37:49.421Z,102660.22
2019-01-10T10:38:49.923Z,102660.31
2019-01-10T10:39:50.662Z,102660.64
2019-01-10T10:40:51.363Z,102660.57
2019-01-10T10:41:51.755Z,102660.59
2019-01-10T10:42:52.167Z,102660.76
2019-01-10T10:43:52.699Z,102660.62
2019-01-10T10:44:53.502Z,102660.70
2019-01-10T10:46:01.498Z,102660.63
2019-01-10T10:46:53.235Z,102660.63
2019-01-10T10:47:55.138Z,102660.89
2019-01-10T10:48:55.044Z,102660.22
2019-01-10T10:49:56.412Z,102660.98
2019-01-10T10:50:56.772Z,102661.16
2019-01-10T10:51:57.250Z,102661.75
2019-01-10T10:52:58.190Z,102661.91
2019-01-10T10:53:06.609Z,102666.88
2019-01-10T10:54:07.913Z,102666.12
2019-01-10T10:55:08.398Z,102666.28
2019-01-10T10:56:08.927Z,102665.45
2019-01-10T10:57:09.379Z,102664.93
2019-01-10T10:58:09.825Z,102664.60
2019-01-10T10:59:10.658Z,102664.23
2019-01-10T11:00:14.337Z,102663.41
2019-01-10T11:01:10.669Z,102662.98
2019-01-10T11:02:12.208Z,102662.81
2019-01-10T11:03:12.575Z,102662.05
2019-01-10T11:04:13.337Z,102661.72
2019-01-10T11:05:14.213Z,102661.81
2019-01-10T11:06:14.639Z,102660.98
2019-01-10T11:07:14.958Z,102660.81
2019-01-10T11:08:15.536Z,102660.58
2019-01-10T11:09:16.307Z,102660.34
2019-01-10T11:10:16.742Z,102660.74
2019-01-10T11:11:17.068Z,102660.74
2019-01-10T11:12:17.779Z,102660.67
2019-01-10T11:13:18.307Z,102660.59
2019-01-10T11:14:18.810Z,102660.59
2019-01-10T11:15:19.327Z,102660.44
2019-01-10T11:16:19.802Z,102660.53
2019-01-10T11:17:20.200Z,102659.86
2019-01-10T11:18:20.704Z,102659.27